AEE7WE EPWA-LGAV
Flight info
| Callsign | AEE7WE |
|---|---|
| Flight time | 2h 5m |
| Altitude | 34000 |
| Route | EVINA M985 KOTEK DCT LITKU/N0450F350 DCT PARAK DCT IBISI DCT KRATO DCT MAKED UL617 SKP UM749 ROPOX |
| Aircraft | A321/M-SDE3FGHIRWY/LB1 |
Departure
| Time | 2026-05-05 14:19 |
|---|---|
| Airport | Warsaw Chopin Airport (EPWA) |
Arrival
| Time | 2026-05-05 16:25 |
|---|---|
| Airport | Athens Eleftherios Venizelos International Airport (LGAV) |
| Time | Latitude | Longitude | Altitude | Speed | Heading |
|---|---|---|---|---|---|
| 2026-05-05 13:21 | 52.17046 | 20.97100 | 352 ft | 0 kts | 69° |
| 2026-05-05 14:10 | 52.17040 | 20.97072 | 350 ft | 4 kts | 70° |
| 2026-05-05 14:11 | 52.17031 | 20.97031 | 360 ft | 4 kts | 70° |
| 2026-05-05 14:11 | 52.17023 | 20.96998 | 358 ft | 4 kts | 54° |
| 2026-05-05 14:11 | 52.17005 | 20.96977 | 359 ft | 4 kts | 353° |
| 2026-05-05 14:11 | 52.16992 | 20.96983 | 357 ft | 0 kts | 332° |
| 2026-05-05 14:14 | 52.16994 | 20.96981 | 358 ft | 2 kts | 332° |
| 2026-05-05 14:14 | 52.17012 | 20.96936 | 356 ft | 8 kts | 274° |
| 2026-05-05 14:14 | 52.16990 | 20.96820 | 358 ft | 12 kts | 244° |
| 2026-05-05 14:14 | 52.17036 | 20.96709 | 356 ft | 16 kts | 331° |
| 2026-05-05 14:15 | 52.17155 | 20.96604 | 351 ft | 23 kts | 332° |
| 2026-05-05 14:15 | 52.17304 | 20.96473 | 356 ft | 23 kts | 332° |
| 2026-05-05 14:15 | 52.17436 | 20.96358 | 351 ft | 20 kts | 332° |
| 2026-05-05 14:15 | 52.17533 | 20.96274 | 353 ft | 15 kts | 332° |
| 2026-05-05 14:16 | 52.17626 | 20.96193 | 356 ft | 16 kts | 332° |
| 2026-05-05 14:16 | 52.17677 | 20.96148 | 354 ft | 2 kts | 331° |
| 2026-05-05 14:16 | 52.17691 | 20.96135 | 353 ft | 3 kts | 331° |
| 2026-05-05 14:16 | 52.17712 | 20.96117 | 357 ft | 4 kts | 331° |
| 2026-05-05 14:17 | 52.17739 | 20.96093 | 352 ft | 5 kts | 331° |
| 2026-05-05 14:17 | 52.17771 | 20.96060 | 354 ft | 6 kts | 322° |
| 2026-05-05 14:17 | 52.17805 | 20.96009 | 354 ft | 7 kts | 314° |
| 2026-05-05 14:17 | 52.17836 | 20.95937 | 354 ft | 9 kts | 302° |
| 2026-05-05 14:18 | 52.17871 | 20.95847 | 356 ft | 10 kts | 301° |
| 2026-05-05 14:18 | 52.17874 | 20.95713 | 343 ft | 16 kts | 248° |
| 2026-05-05 14:18 | 52.17812 | 20.95637 | 334 ft | 7 kts | 174° |
| 2026-05-05 14:18 | 52.17764 | 20.95673 | 335 ft | 11 kts | 153° |
| 2026-05-05 14:19 | 52.17488 | 20.95906 | 337 ft | 79 kts | 152° |
| 2026-05-05 14:19 | 52.16811 | 20.96501 | 353 ft | 139 kts | 152° |
| 2026-05-05 14:19 | 52.15825 | 20.97380 | 485 ft | 171 kts | 154° |
| 2026-05-05 14:19 | 52.14798 | 20.98271 | 1247 ft | 166 kts | 154° |
| 2026-05-05 14:20 | 52.13789 | 20.99167 | 1965 ft | 164 kts | 155° |
| 2026-05-05 14:20 | 52.12741 | 21.00078 | 2321 ft | 182 kts | 155° |
| 2026-05-05 14:20 | 52.11505 | 21.00784 | 2557 ft | 198 kts | 184° |
| 2026-05-05 14:20 | 52.10157 | 21.00029 | 2698 ft | 220 kts | 210° |
| 2026-05-05 14:21 | 52.08793 | 20.98532 | 2687 ft | 250 kts | 214° |
| 2026-05-05 14:21 | 52.07381 | 20.96892 | 3462 ft | 251 kts | 215° |
| 2026-05-05 14:21 | 52.05952 | 20.95222 | 4128 ft | 254 kts | 215° |
| 2026-05-05 14:21 | 52.04512 | 20.93579 | 4916 ft | 253 kts | 216° |
| 2026-05-05 14:22 | 52.03328 | 20.91449 | 5555 ft | 259 kts | 241° |
| 2026-05-05 14:22 | 52.02642 | 20.88731 | 6247 ft | 261 kts | 247° |
| 2026-05-05 14:22 | 52.01984 | 20.85982 | 6911 ft | 262 kts | 246° |
| 2026-05-05 14:22 | 52.01313 | 20.83224 | 7556 ft | 264 kts | 246° |
| 2026-05-05 14:23 | 52.00630 | 20.80442 | 8215 ft | 266 kts | 246° |
| 2026-05-05 14:23 | 51.99941 | 20.77651 | 8886 ft | 267 kts | 246° |
| 2026-05-05 14:23 | 51.99251 | 20.74856 | 9603 ft | 267 kts | 246° |
| 2026-05-05 14:23 | 51.98554 | 20.72039 | 10093 ft | 276 kts | 246° |
| 2026-05-05 14:24 | 51.97811 | 20.69051 | 10222 ft | 296 kts | 246° |
| 2026-05-05 14:24 | 51.97017 | 20.65860 | 10348 ft | 314 kts | 246° |
| 2026-05-05 14:24 | 51.96117 | 20.62520 | 10476 ft | 331 kts | 240° |
| 2026-05-05 14:24 | 51.94783 | 20.59410 | 10751 ft | 341 kts | 229° |
| 2026-05-05 14:25 | 51.93009 | 20.56807 | 11221 ft | 347 kts | 216° |
| 2026-05-05 14:25 | 51.90955 | 20.54949 | 11743 ft | 351 kts | 204° |
| 2026-05-05 14:25 | 51.88655 | 20.53582 | 12278 ft | 354 kts | 202° |
| 2026-05-05 14:25 | 51.86327 | 20.52226 | 12817 ft | 356 kts | 202° |
| 2026-05-05 14:26 | 51.83981 | 20.50858 | 13342 ft | 359 kts | 202° |
| 2026-05-05 14:26 | 51.81622 | 20.49481 | 13826 ft | 362 kts | 202° |
| 2026-05-05 14:26 | 51.79244 | 20.48094 | 14287 ft | 365 kts | 202° |
| 2026-05-05 14:26 | 51.76844 | 20.46697 | 14757 ft | 368 kts | 202° |
| 2026-05-05 14:27 | 51.74426 | 20.45290 | 15208 ft | 371 kts | 202° |
| 2026-05-05 14:27 | 51.71982 | 20.43873 | 15649 ft | 374 kts | 202° |
| 2026-05-05 14:27 | 51.69525 | 20.42449 | 16087 ft | 377 kts | 202° |
| 2026-05-05 14:27 | 51.67044 | 20.41010 | 16496 ft | 380 kts | 202° |
| 2026-05-05 14:28 | 51.64468 | 20.39912 | 16895 ft | 387 kts | 192° |
| 2026-05-05 14:28 | 51.61776 | 20.39444 | 17302 ft | 391 kts | 188° |
| 2026-05-05 14:28 | 51.59055 | 20.39043 | 17707 ft | 394 kts | 188° |
| 2026-05-05 14:28 | 51.56313 | 20.38641 | 18093 ft | 397 kts | 188° |
| 2026-05-05 14:29 | 51.53549 | 20.38231 | 18437 ft | 400 kts | 188° |
| 2026-05-05 14:29 | 51.50778 | 20.37810 | 18788 ft | 402 kts | 188° |
| 2026-05-05 14:29 | 51.47984 | 20.37383 | 19153 ft | 404 kts | 188° |
| 2026-05-05 14:29 | 51.45180 | 20.36956 | 19500 ft | 406 kts | 188° |
| 2026-05-05 14:30 | 51.42357 | 20.36534 | 19864 ft | 409 kts | 188° |
| 2026-05-05 14:30 | 51.39523 | 20.36116 | 20223 ft | 411 kts | 188° |
| 2026-05-05 14:30 | 51.36667 | 20.35696 | 20579 ft | 414 kts | 188° |
| 2026-05-05 14:30 | 51.33785 | 20.35273 | 20934 ft | 416 kts | 188° |
| 2026-05-05 14:31 | 51.30914 | 20.34849 | 21271 ft | 419 kts | 188° |
| 2026-05-05 14:31 | 51.28008 | 20.34414 | 21610 ft | 422 kts | 188° |
| 2026-05-05 14:31 | 51.25089 | 20.33970 | 21932 ft | 424 kts | 188° |
| 2026-05-05 14:31 | 51.22149 | 20.33527 | 22265 ft | 426 kts | 188° |
| 2026-05-05 14:32 | 51.19178 | 20.33086 | 22599 ft | 428 kts | 188° |
| 2026-05-05 14:32 | 51.16202 | 20.32644 | 22909 ft | 431 kts | 188° |
| 2026-05-05 14:32 | 51.13206 | 20.32202 | 23215 ft | 434 kts | 187° |
| 2026-05-05 14:32 | 51.10192 | 20.31761 | 23497 ft | 435 kts | 187° |
| 2026-05-05 14:33 | 51.07168 | 20.31318 | 23826 ft | 436 kts | 187° |
| 2026-05-05 14:33 | 51.04143 | 20.30875 | 24123 ft | 438 kts | 187° |
| 2026-05-05 14:33 | 51.01102 | 20.30430 | 24425 ft | 439 kts | 187° |
| 2026-05-05 14:33 | 50.98056 | 20.29983 | 24703 ft | 441 kts | 187° |
| 2026-05-05 14:34 | 50.94996 | 20.29533 | 24945 ft | 443 kts | 187° |
| 2026-05-05 14:34 | 50.91933 | 20.29083 | 25202 ft | 445 kts | 187° |
| 2026-05-05 14:34 | 50.88884 | 20.28637 | 25474 ft | 447 kts | 187° |
| 2026-05-05 14:34 | 50.85748 | 20.28177 | 25748 ft | 448 kts | 187° |
| 2026-05-05 14:35 | 50.82676 | 20.27726 | 26013 ft | 449 kts | 187° |
| 2026-05-05 14:35 | 50.79521 | 20.27260 | 26270 ft | 451 kts | 187° |
| 2026-05-05 14:35 | 50.76434 | 20.26809 | 26518 ft | 452 kts | 187° |
| 2026-05-05 14:35 | 50.73300 | 20.26356 | 26743 ft | 453 kts | 187° |
| 2026-05-05 14:36 | 50.70152 | 20.25905 | 26946 ft | 455 kts | 187° |
| 2026-05-05 14:36 | 50.67005 | 20.25456 | 27158 ft | 456 kts | 187° |
| 2026-05-05 14:36 | 50.63946 | 20.24989 | 27384 ft | 456 kts | 188° |
| 2026-05-05 14:36 | 50.60812 | 20.24311 | 27684 ft | 454 kts | 191° |
| 2026-05-05 14:37 | 50.57708 | 20.23452 | 27991 ft | 452 kts | 193° |
| 2026-05-05 14:37 | 50.54631 | 20.22490 | 28307 ft | 450 kts | 193° |
| 2026-05-05 14:37 | 50.51569 | 20.21502 | 28607 ft | 449 kts | 193° |
| 2026-05-05 14:37 | 50.48500 | 20.20533 | 28902 ft | 448 kts | 193° |
| 2026-05-05 14:38 | 50.45440 | 20.19614 | 29216 ft | 447 kts | 192° |
| 2026-05-05 14:38 | 50.42376 | 20.18739 | 29534 ft | 446 kts | 192° |
| 2026-05-05 14:38 | 50.39373 | 20.17909 | 29840 ft | 445 kts | 192° |
| 2026-05-05 14:38 | 50.36325 | 20.17080 | 30105 ft | 444 kts | 192° |
| 2026-05-05 14:39 | 50.33281 | 20.16250 | 30349 ft | 444 kts | 192° |
| 2026-05-05 14:39 | 50.30250 | 20.15411 | 30588 ft | 443 kts | 192° |
| 2026-05-05 14:39 | 50.27218 | 20.14565 | 30815 ft | 442 kts | 192° |
| 2026-05-05 14:39 | 50.24183 | 20.13716 | 31051 ft | 442 kts | 192° |
| 2026-05-05 14:40 | 50.21159 | 20.12871 | 31292 ft | 441 kts | 192° |
| 2026-05-05 14:40 | 50.18139 | 20.12030 | 31494 ft | 441 kts | 192° |
| 2026-05-05 14:40 | 50.15118 | 20.11187 | 31699 ft | 442 kts | 192° |
| 2026-05-05 14:40 | 50.12094 | 20.10343 | 31927 ft | 441 kts | 192° |
| 2026-05-05 14:41 | 50.10090 | 20.09787 | 32083 ft | 441 kts | 192° |
| 2026-05-05 14:41 | 50.07072 | 20.08953 | 32319 ft | 440 kts | 192° |
| 2026-05-05 14:41 | 50.04060 | 20.08122 | 32559 ft | 439 kts | 192° |
| 2026-05-05 14:41 | 50.01057 | 20.07288 | 32801 ft | 438 kts | 192° |
| 2026-05-05 14:42 | 49.98058 | 20.06456 | 33026 ft | 438 kts | 192° |
| 2026-05-05 14:42 | 49.95059 | 20.05625 | 33273 ft | 437 kts | 192° |
| 2026-05-05 14:42 | 49.91106 | 20.04540 | 33613 ft | 435 kts | 192° |
| 2026-05-05 14:42 | 49.89093 | 20.03989 | 33763 ft | 435 kts | 192° |
| 2026-05-05 14:43 | 49.83131 | 20.02356 | 33858 ft | 435 kts | 192° |
| 2026-05-05 14:43 | 49.77169 | 20.00723 | 33899 ft | 435 kts | 192° |
| 2026-05-05 14:44 | 49.74188 | 19.99914 | 34098 ft | 435 kts | 192° |
| 2026-05-05 14:44 | 49.71208 | 19.99106 | 34260 ft | 435 kts | 192° |
| 2026-05-05 14:44 | 49.68226 | 19.98290 | 34402 ft | 436 kts | 192° |
| 2026-05-05 14:44 | 49.65282 | 19.97484 | 34577 ft | 435 kts | 192° |
| 2026-05-05 14:45 | 49.62301 | 19.96667 | 34754 ft | 434 kts | 193° |
| 2026-05-05 14:45 | 49.59324 | 19.95853 | 34859 ft | 435 kts | 192° |
| 2026-05-05 14:45 | 49.53349 | 19.94230 | 34882 ft | 436 kts | 192° |
| 2026-05-05 14:46 | 49.47369 | 19.92616 | 34882 ft | 436 kts | 193° |
| 2026-05-05 14:46 | 49.41409 | 19.91012 | 34895 ft | 435 kts | 192° |
| 2026-05-05 14:47 | 49.35425 | 19.89401 | 34892 ft | 437 kts | 192° |
| 2026-05-05 14:47 | 49.29454 | 19.87791 | 34901 ft | 436 kts | 193° |
| 2026-05-05 14:48 | 49.23477 | 19.86186 | 34912 ft | 436 kts | 192° |
| 2026-05-05 14:48 | 49.17491 | 19.84599 | 34918 ft | 437 kts | 192° |
| 2026-05-05 14:49 | 49.11501 | 19.83007 | 34936 ft | 437 kts | 193° |
| 2026-05-05 14:49 | 49.05518 | 19.81400 | 34935 ft | 438 kts | 193° |
| 2026-05-05 14:50 | 48.99547 | 19.79808 | 34944 ft | 437 kts | 193° |
| 2026-05-05 14:50 | 48.93552 | 19.78226 | 34946 ft | 438 kts | 192° |
| 2026-05-05 14:51 | 48.87551 | 19.76651 | 34937 ft | 438 kts | 192° |
| 2026-05-05 14:51 | 48.81538 | 19.75079 | 34943 ft | 438 kts | 192° |
| 2026-05-05 14:52 | 48.75521 | 19.73497 | 34942 ft | 439 kts | 192° |
| 2026-05-05 14:52 | 48.69504 | 19.71911 | 34944 ft | 439 kts | 192° |
| 2026-05-05 14:53 | 48.63500 | 19.70338 | 34947 ft | 439 kts | 192° |
| 2026-05-05 14:53 | 48.57480 | 19.68762 | 34944 ft | 439 kts | 192° |
| 2026-05-05 14:54 | 48.51465 | 19.67196 | 34954 ft | 439 kts | 192° |
| 2026-05-05 14:54 | 48.45449 | 19.65637 | 34938 ft | 439 kts | 192° |
| 2026-05-05 14:55 | 48.39421 | 19.64083 | 34942 ft | 439 kts | 192° |
| 2026-05-05 14:55 | 48.33399 | 19.62533 | 34941 ft | 439 kts | 192° |
| 2026-05-05 14:56 | 48.27414 | 19.60992 | 34931 ft | 440 kts | 192° |
| 2026-05-05 14:56 | 48.21303 | 19.60372 | 34936 ft | 444 kts | 176° |
| 2026-05-05 14:57 | 48.15181 | 19.61832 | 34930 ft | 446 kts | 173° |
| 2026-05-05 14:57 | 48.09056 | 19.63361 | 34932 ft | 446 kts | 173° |
| 2026-05-05 14:58 | 48.03016 | 19.64848 | 34934 ft | 447 kts | 173° |
| 2026-05-05 14:58 | 47.96877 | 19.66368 | 34941 ft | 447 kts | 173° |
| 2026-05-05 14:59 | 47.90741 | 19.67884 | 34947 ft | 447 kts | 173° |
| 2026-05-05 14:59 | 47.84606 | 19.69384 | 34948 ft | 447 kts | 173° |
| 2026-05-05 15:00 | 47.79503 | 19.70632 | 34943 ft | 447 kts | 173° |
| 2026-05-05 15:00 | 47.72322 | 19.72390 | 34942 ft | 448 kts | 173° |
| 2026-05-05 15:01 | 47.66189 | 19.73893 | 34943 ft | 448 kts | 173° |
| 2026-05-05 15:01 | 47.60030 | 19.75395 | 34943 ft | 449 kts | 173° |
| 2026-05-05 15:02 | 47.53872 | 19.76897 | 34937 ft | 449 kts | 172° |
| 2026-05-05 15:02 | 47.47706 | 19.78402 | 34939 ft | 449 kts | 173° |
| 2026-05-05 15:03 | 47.41534 | 19.79888 | 34941 ft | 449 kts | 173° |
| 2026-05-05 15:03 | 47.35364 | 19.81368 | 34946 ft | 449 kts | 173° |
| 2026-05-05 15:04 | 47.29258 | 19.82839 | 34941 ft | 450 kts | 173° |
| 2026-05-05 15:04 | 47.23130 | 19.84309 | 34938 ft | 451 kts | 173° |
| 2026-05-05 15:05 | 47.13833 | 19.86541 | 34948 ft | 452 kts | 173° |
| 2026-05-05 15:06 | 47.07626 | 19.88028 | 34955 ft | 452 kts | 173° |
| 2026-05-05 15:06 | 47.01426 | 19.89506 | 34960 ft | 452 kts | 173° |
| 2026-05-05 15:07 | 46.95215 | 19.90982 | 34966 ft | 452 kts | 173° |
| 2026-05-05 15:07 | 46.88999 | 19.92455 | 34962 ft | 452 kts | 173° |
| 2026-05-05 15:08 | 46.82786 | 19.93923 | 34960 ft | 453 kts | 173° |
| 2026-05-05 15:08 | 46.76566 | 19.95390 | 34957 ft | 453 kts | 173° |
| 2026-05-05 15:09 | 46.70337 | 19.96863 | 34950 ft | 453 kts | 172° |
| 2026-05-05 15:09 | 46.64107 | 19.98327 | 34945 ft | 454 kts | 173° |
| 2026-05-05 15:10 | 46.57871 | 19.99783 | 34951 ft | 454 kts | 173° |
| 2026-05-05 15:10 | 46.51632 | 20.01230 | 34948 ft | 454 kts | 173° |
| 2026-05-05 15:11 | 46.45380 | 20.02688 | 34955 ft | 454 kts | 173° |
| 2026-05-05 15:11 | 46.39138 | 20.04160 | 34946 ft | 455 kts | 173° |
| 2026-05-05 15:12 | 46.32890 | 20.05619 | 34944 ft | 455 kts | 173° |
| 2026-05-05 15:12 | 46.26637 | 20.07065 | 34948 ft | 455 kts | 173° |
| 2026-05-05 15:13 | 46.20428 | 20.08487 | 34943 ft | 455 kts | 173° |
| 2026-05-05 15:13 | 46.14244 | 20.10519 | 34941 ft | 459 kts | 161° |
| 2026-05-05 15:14 | 46.08252 | 20.13695 | 34945 ft | 460 kts | 162° |
| 2026-05-05 15:14 | 46.02237 | 20.16859 | 34946 ft | 460 kts | 162° |
| 2026-05-05 15:15 | 45.96217 | 20.19999 | 34944 ft | 461 kts | 162° |
| 2026-05-05 15:15 | 45.90190 | 20.23139 | 34946 ft | 461 kts | 162° |
| 2026-05-05 15:16 | 45.84157 | 20.26268 | 34952 ft | 461 kts | 162° |
| 2026-05-05 15:16 | 45.78119 | 20.29406 | 34954 ft | 461 kts | 162° |
| 2026-05-05 15:17 | 45.72092 | 20.32523 | 34949 ft | 462 kts | 162° |
| 2026-05-05 15:17 | 45.66050 | 20.35650 | 34954 ft | 462 kts | 162° |
| 2026-05-05 15:18 | 45.59997 | 20.38779 | 34953 ft | 462 kts | 162° |
| 2026-05-05 15:18 | 45.53945 | 20.41882 | 34959 ft | 463 kts | 162° |
| 2026-05-05 15:19 | 45.47878 | 20.44981 | 34957 ft | 464 kts | 162° |
| 2026-05-05 15:19 | 45.41809 | 20.48097 | 34962 ft | 464 kts | 162° |
| 2026-05-05 15:20 | 45.35728 | 20.51209 | 34959 ft | 464 kts | 162° |
| 2026-05-05 15:20 | 45.29752 | 20.54249 | 34957 ft | 464 kts | 162° |
| 2026-05-05 15:21 | 45.23671 | 20.57353 | 34959 ft | 465 kts | 162° |
| 2026-05-05 15:21 | 45.17580 | 20.60446 | 34965 ft | 465 kts | 162° |
| 2026-05-05 15:22 | 45.11473 | 20.63535 | 34969 ft | 466 kts | 162° |
| 2026-05-05 15:22 | 45.05376 | 20.66611 | 34975 ft | 466 kts | 162° |
| 2026-05-05 15:23 | 44.99252 | 20.69688 | 34982 ft | 467 kts | 162° |
| 2026-05-05 15:23 | 44.93127 | 20.72765 | 34978 ft | 468 kts | 162° |
| 2026-05-05 15:24 | 44.86994 | 20.75844 | 34978 ft | 468 kts | 162° |
| 2026-05-05 15:24 | 44.80862 | 20.78916 | 34980 ft | 468 kts | 162° |
| 2026-05-05 15:25 | 44.74721 | 20.81979 | 34984 ft | 468 kts | 162° |
| 2026-05-05 15:25 | 44.68623 | 20.85013 | 34984 ft | 468 kts | 162° |
| 2026-05-05 15:26 | 44.62481 | 20.88079 | 34986 ft | 468 kts | 162° |
| 2026-05-05 15:26 | 44.56354 | 20.91123 | 34978 ft | 469 kts | 162° |
| 2026-05-05 15:27 | 44.50196 | 20.94170 | 34972 ft | 469 kts | 162° |
| 2026-05-05 15:27 | 44.44039 | 20.97199 | 34974 ft | 470 kts | 162° |
| 2026-05-05 15:28 | 44.37861 | 21.00232 | 34967 ft | 470 kts | 162° |
| 2026-05-05 15:28 | 44.31693 | 21.03265 | 34976 ft | 471 kts | 162° |
| 2026-05-05 15:29 | 44.25514 | 21.06304 | 34975 ft | 471 kts | 162° |
| 2026-05-05 15:29 | 44.19326 | 21.09335 | 34975 ft | 471 kts | 162° |
| 2026-05-05 15:30 | 44.13170 | 21.12331 | 34969 ft | 472 kts | 162° |
| 2026-05-05 15:30 | 44.07986 | 21.14854 | 34972 ft | 473 kts | 162° |
| 2026-05-05 15:31 | 44.01776 | 21.17874 | 34982 ft | 473 kts | 162° |
| 2026-05-05 15:31 | 43.95553 | 21.20894 | 34978 ft | 474 kts | 162° |
| 2026-05-05 15:32 | 43.89318 | 21.23918 | 34979 ft | 475 kts | 162° |
| 2026-05-05 15:32 | 43.83074 | 21.26934 | 34981 ft | 475 kts | 162° |
| 2026-05-05 15:33 | 43.76829 | 21.29944 | 34989 ft | 475 kts | 162° |
| 2026-05-05 15:33 | 43.70637 | 21.32918 | 34989 ft | 476 kts | 162° |
| 2026-05-05 15:34 | 43.64375 | 21.35920 | 34987 ft | 477 kts | 162° |
| 2026-05-05 15:34 | 43.58112 | 21.38918 | 34987 ft | 477 kts | 162° |
| 2026-05-05 15:35 | 43.51837 | 21.41910 | 34985 ft | 477 kts | 162° |
| 2026-05-05 15:35 | 43.45563 | 21.44903 | 34992 ft | 478 kts | 162° |
| 2026-05-05 15:36 | 43.39281 | 21.47899 | 35002 ft | 478 kts | 162° |
| 2026-05-05 15:36 | 43.32991 | 21.50880 | 34998 ft | 478 kts | 162° |
| 2026-05-05 15:37 | 43.26747 | 21.53836 | 35001 ft | 479 kts | 163° |
| 2026-05-05 15:37 | 43.20522 | 21.56781 | 34999 ft | 479 kts | 162° |
| 2026-05-05 15:38 | 43.14221 | 21.59759 | 35001 ft | 479 kts | 163° |
| 2026-05-05 15:38 | 43.07926 | 21.62713 | 34993 ft | 479 kts | 163° |
| 2026-05-05 15:39 | 43.01609 | 21.65673 | 35000 ft | 480 kts | 163° |
| 2026-05-05 15:39 | 42.95284 | 21.68646 | 35007 ft | 481 kts | 163° |
| 2026-05-05 15:40 | 42.88940 | 21.71514 | 35009 ft | 481 kts | 164° |
| 2026-05-05 15:40 | 42.82557 | 21.74297 | 35004 ft | 482 kts | 165° |
| 2026-05-05 15:41 | 42.76179 | 21.77076 | 35001 ft | 482 kts | 164° |
| 2026-05-05 15:41 | 42.69789 | 21.79873 | 35011 ft | 483 kts | 164° |
| 2026-05-05 15:42 | 42.63403 | 21.82686 | 35020 ft | 482 kts | 164° |
| 2026-05-05 15:42 | 42.57061 | 21.85483 | 35019 ft | 482 kts | 164° |
| 2026-05-05 15:43 | 42.50675 | 21.88279 | 35022 ft | 482 kts | 164° |
| 2026-05-05 15:43 | 42.44290 | 21.91051 | 35011 ft | 483 kts | 164° |
| 2026-05-05 15:44 | 42.37888 | 21.93849 | 35007 ft | 483 kts | 164° |
| 2026-05-05 15:44 | 42.31487 | 21.96648 | 35015 ft | 484 kts | 164° |
| 2026-05-05 15:45 | 42.25070 | 21.99433 | 35008 ft | 484 kts | 164° |
| 2026-05-05 15:45 | 42.18643 | 22.02212 | 35008 ft | 485 kts | 164° |
| 2026-05-05 15:46 | 42.12216 | 22.04996 | 35001 ft | 486 kts | 164° |
| 2026-05-05 15:46 | 42.05763 | 22.07784 | 35014 ft | 486 kts | 164° |
| 2026-05-05 15:47 | 41.99340 | 22.10682 | 35003 ft | 488 kts | 162° |
| 2026-05-05 15:47 | 41.92971 | 22.13786 | 35015 ft | 489 kts | 162° |
| 2026-05-05 15:48 | 41.86580 | 22.16919 | 35013 ft | 489 kts | 162° |
| 2026-05-05 15:48 | 41.80186 | 22.19996 | 35007 ft | 490 kts | 162° |
| 2026-05-05 15:49 | 41.73834 | 22.23004 | 35008 ft | 491 kts | 162° |
| 2026-05-05 15:49 | 41.67394 | 22.26054 | 35004 ft | 491 kts | 162° |
| 2026-05-05 15:50 | 41.60956 | 22.29104 | 34998 ft | 492 kts | 163° |
| 2026-05-05 15:50 | 41.54496 | 22.32154 | 34993 ft | 493 kts | 163° |
| 2026-05-05 15:51 | 41.48026 | 22.35211 | 34996 ft | 494 kts | 163° |
| 2026-05-05 15:51 | 41.41537 | 22.38269 | 34998 ft | 495 kts | 163° |
| 2026-05-05 15:52 | 41.35038 | 22.41324 | 34999 ft | 496 kts | 163° |
| 2026-05-05 15:52 | 41.28567 | 22.44359 | 34995 ft | 497 kts | 163° |
| 2026-05-05 15:53 | 41.22012 | 22.47425 | 35006 ft | 497 kts | 163° |
| 2026-05-05 15:53 | 41.15532 | 22.50457 | 35011 ft | 498 kts | 163° |
| 2026-05-05 15:54 | 41.09224 | 22.54294 | 35005 ft | 501 kts | 153° |
| 2026-05-05 15:54 | 41.03076 | 22.58680 | 35003 ft | 502 kts | 153° |
| 2026-05-05 15:55 | 40.96926 | 22.63065 | 34991 ft | 502 kts | 153° |
| 2026-05-05 15:55 | 40.90551 | 22.66724 | 34977 ft | 499 kts | 165° |
| 2026-05-05 15:56 | 40.83913 | 22.69506 | 34973 ft | 501 kts | 165° |
| 2026-05-05 15:56 | 40.77255 | 22.72269 | 34971 ft | 502 kts | 165° |
| 2026-05-05 15:57 | 40.70584 | 22.75040 | 34992 ft | 503 kts | 166° |
| 2026-05-05 15:57 | 40.63894 | 22.77813 | 34992 ft | 504 kts | 166° |
| 2026-05-05 15:58 | 40.57193 | 22.80584 | 35019 ft | 505 kts | 165° |
| 2026-05-05 15:58 | 40.50502 | 22.83347 | 35024 ft | 504 kts | 165° |
| 2026-05-05 15:59 | 40.43807 | 22.86113 | 35022 ft | 504 kts | 165° |
| 2026-05-05 15:59 | 40.37119 | 22.88864 | 35023 ft | 504 kts | 165° |
| 2026-05-05 16:00 | 40.30435 | 22.91602 | 35023 ft | 504 kts | 165° |
| 2026-05-05 16:00 | 40.23742 | 22.94346 | 35011 ft | 504 kts | 166° |
| 2026-05-05 16:01 | 40.17204 | 22.97585 | 35011 ft | 507 kts | 160° |
| 2026-05-05 16:01 | 40.10714 | 23.01192 | 35009 ft | 508 kts | 159° |
| 2026-05-05 16:02 | 40.04221 | 23.04851 | 35014 ft | 509 kts | 159° |
| 2026-05-05 16:02 | 39.97712 | 23.08488 | 35011 ft | 510 kts | 159° |
| 2026-05-05 16:03 | 39.91192 | 23.12101 | 35035 ft | 510 kts | 159° |
| 2026-05-05 16:03 | 39.84652 | 23.15713 | 35040 ft | 510 kts | 159° |
| 2026-05-05 16:04 | 39.78147 | 23.19301 | 35035 ft | 510 kts | 159° |
| 2026-05-05 16:04 | 39.74912 | 23.21084 | 34610 ft | 507 kts | 159° |
| 2026-05-05 16:04 | 39.71645 | 23.22882 | 33549 ft | 509 kts | 159° |
| 2026-05-05 16:04 | 39.68379 | 23.24677 | 32346 ft | 512 kts | 159° |
| 2026-05-05 16:05 | 39.65082 | 23.26483 | 31095 ft | 517 kts | 159° |
| 2026-05-05 16:05 | 39.61751 | 23.28302 | 29778 ft | 522 kts | 159° |
| 2026-05-05 16:05 | 39.58387 | 23.30139 | 28314 ft | 526 kts | 159° |
| 2026-05-05 16:05 | 39.55018 | 23.31983 | 26957 ft | 525 kts | 157° |
| 2026-05-05 16:06 | 39.51674 | 23.33817 | 25936 ft | 517 kts | 158° |
| 2026-05-05 16:06 | 39.48449 | 23.35581 | 25181 ft | 509 kts | 158° |
| 2026-05-05 16:06 | 39.45146 | 23.37383 | 24642 ft | 503 kts | 158° |
| 2026-05-05 16:06 | 39.41949 | 23.39128 | 24132 ft | 498 kts | 158° |
| 2026-05-05 16:07 | 39.38772 | 23.40860 | 23628 ft | 492 kts | 158° |
| 2026-05-05 16:07 | 39.35636 | 23.42567 | 23051 ft | 487 kts | 157° |
| 2026-05-05 16:07 | 39.32530 | 23.44255 | 22458 ft | 482 kts | 157° |
| 2026-05-05 16:07 | 39.29449 | 23.45926 | 22083 ft | 479 kts | 157° |
| 2026-05-05 16:08 | 39.26388 | 23.47583 | 22002 ft | 476 kts | 157° |
| 2026-05-05 16:08 | 39.23447 | 23.49172 | 22034 ft | 477 kts | 157° |
| 2026-05-05 16:08 | 39.20321 | 23.50859 | 22030 ft | 476 kts | 157° |
| 2026-05-05 16:08 | 39.17265 | 23.52509 | 22030 ft | 476 kts | 157° |
| 2026-05-05 16:09 | 39.14207 | 23.54161 | 22031 ft | 477 kts | 157° |
| 2026-05-05 16:09 | 39.11149 | 23.55814 | 22031 ft | 477 kts | 157° |
| 2026-05-05 16:09 | 39.08094 | 23.57467 | 22028 ft | 477 kts | 157° |
| 2026-05-05 16:09 | 39.05029 | 23.59125 | 22030 ft | 477 kts | 157° |
| 2026-05-05 16:10 | 39.01967 | 23.60776 | 21997 ft | 477 kts | 157° |
| 2026-05-05 16:10 | 38.98937 | 23.62406 | 21248 ft | 468 kts | 157° |
| 2026-05-05 16:10 | 38.95953 | 23.64006 | 20290 ft | 461 kts | 157° |
| 2026-05-05 16:10 | 38.93021 | 23.65576 | 19401 ft | 453 kts | 157° |
| 2026-05-05 16:11 | 38.90139 | 23.67118 | 18546 ft | 445 kts | 157° |
| 2026-05-05 16:11 | 38.81779 | 23.71584 | 15982 ft | 424 kts | 156° |
| 2026-05-05 16:12 | 38.79078 | 23.73027 | 15136 ft | 417 kts | 156° |
| 2026-05-05 16:12 | 38.73808 | 23.75848 | 13505 ft | 404 kts | 156° |
| 2026-05-05 16:13 | 38.66203 | 23.79892 | 11613 ft | 383 kts | 156° |
| 2026-05-05 16:13 | 38.63843 | 23.81143 | 11481 ft | 361 kts | 156° |
| 2026-05-05 16:13 | 38.61567 | 23.82352 | 11354 ft | 339 kts | 156° |
| 2026-05-05 16:14 | 38.57427 | 23.84551 | 10875 ft | 313 kts | 156° |
| 2026-05-05 16:14 | 38.53469 | 23.86654 | 9967 ft | 308 kts | 156° |
| 2026-05-05 16:15 | 38.49533 | 23.88740 | 9191 ft | 304 kts | 156° |
| 2026-05-05 16:15 | 38.45654 | 23.90794 | 8444 ft | 300 kts | 157° |
| 2026-05-05 16:16 | 38.41824 | 23.92825 | 7690 ft | 296 kts | 157° |
| 2026-05-05 16:16 | 38.38042 | 23.94814 | 7046 ft | 293 kts | 158° |
| 2026-05-05 16:17 | 38.34288 | 23.96789 | 6518 ft | 290 kts | 158° |
| 2026-05-05 16:17 | 38.32425 | 23.97768 | 6154 ft | 288 kts | 158° |
| 2026-05-05 16:18 | 38.28745 | 23.99710 | 5416 ft | 284 kts | 158° |
| 2026-05-05 16:18 | 38.27539 | 24.00345 | 5170 ft | 283 kts | 158° |
| 2026-05-05 16:18 | 38.24042 | 24.02186 | 4874 ft | 258 kts | 158° |
| 2026-05-05 16:19 | 38.22415 | 24.03039 | 4591 ft | 250 kts | 158° |
| 2026-05-05 16:19 | 38.20816 | 24.03880 | 4274 ft | 248 kts | 158° |
| 2026-05-05 16:19 | 38.17663 | 24.05533 | 3998 ft | 245 kts | 158° |
| 2026-05-05 16:20 | 38.14552 | 24.07163 | 4012 ft | 233 kts | 158° |
| 2026-05-05 16:20 | 38.11586 | 24.08522 | 4014 ft | 225 kts | 173° |
| 2026-05-05 16:21 | 38.08653 | 24.07631 | 3650 ft | 217 kts | 218° |
| 2026-05-05 16:22 | 38.05090 | 24.04226 | 2807 ft | 205 kts | 219° |
| 2026-05-05 16:22 | 38.02897 | 24.02131 | 2301 ft | 190 kts | 218° |
| 2026-05-05 16:23 | 38.00865 | 24.00190 | 1823 ft | 171 kts | 217° |
| 2026-05-05 16:23 | 37.99967 | 23.99333 | 1596 ft | 158 kts | 217° |
| 2026-05-05 16:23 | 37.98256 | 23.97702 | 1190 ft | 149 kts | 217° |
| 2026-05-05 16:24 | 37.97444 | 23.96928 | 1002 ft | 147 kts | 217° |
| 2026-05-05 16:24 | 37.96629 | 23.96152 | 829 ft | 146 kts | 217° |
| 2026-05-05 16:24 | 37.94970 | 23.94567 | 409 ft | 152 kts | 218° |
| 2026-05-05 16:25 | 37.94141 | 23.93782 | 303 ft | 140 kts | 217° |
| 2026-05-05 16:25 | 37.93461 | 23.93175 | 290 ft | 20 kts | 199° |
| 2026-05-05 16:25 | 37.93361 | 23.93143 | 293 ft | 2 kts | 189° |
| 2026-05-05 16:26 | 37.93281 | 23.93139 | 296 ft | 7 kts | 149° |
| 2026-05-05 16:26 | 37.93277 | 23.93229 | 299 ft | 14 kts | 50° |
| 2026-05-05 16:27 | 37.93374 | 23.93333 | 300 ft | 19 kts | 38° |
| 2026-05-05 16:27 | 37.93405 | 23.93470 | 301 ft | 18 kts | 118° |
| 2026-05-05 16:27 | 37.93332 | 23.93599 | 302 ft | 18 kts | 127° |
| 2026-05-05 16:27 | 37.93254 | 23.93731 | 303 ft | 19 kts | 127° |
| 2026-05-05 16:28 | 37.93171 | 23.93871 | 301 ft | 20 kts | 127° |
| 2026-05-05 16:28 | 37.93088 | 23.94009 | 303 ft | 17 kts | 127° |
| 2026-05-05 16:28 | 37.93014 | 23.94135 | 302 ft | 18 kts | 127° |
| 2026-05-05 16:28 | 37.92936 | 23.94266 | 304 ft | 13 kts | 127° |
| 2026-05-05 16:29 | 37.92901 | 23.94324 | 301 ft | 7 kts | 127° |
| 2026-05-05 16:29 | 37.92900 | 23.94325 | 301 ft | 0 kts | 127° |
| 2026-05-05 16:31 | 37.92899 | 23.94326 | 301 ft | 1 kts | 127° |
| 2026-05-05 16:31 | 37.92891 | 23.94340 | 303 ft | 6 kts | 124° |
| 2026-05-05 16:31 | 37.92913 | 23.94429 | 302 ft | 18 kts | 45° |
| 2026-05-05 16:31 | 37.93028 | 23.94545 | 302 ft | 26 kts | 37° |
| 2026-05-05 16:32 | 37.93175 | 23.94685 | 302 ft | 24 kts | 37° |
| 2026-05-05 16:32 | 37.93319 | 23.94823 | 302 ft | 30 kts | 37° |
| 2026-05-05 16:32 | 37.93451 | 23.94948 | 302 ft | 20 kts | 37° |
| 2026-05-05 16:32 | 37.93549 | 23.95042 | 301 ft | 20 kts | 37° |
| 2026-05-05 16:33 | 37.93659 | 23.95144 | 302 ft | 15 kts | 26° |
| 2026-05-05 16:33 | 37.93735 | 23.95103 | 302 ft | 15 kts | 352° |
| 2026-05-05 16:33 | 37.93817 | 23.95159 | 304 ft | 10 kts | 2° |
| 2026-05-05 16:33 | 37.93844 | 23.95127 | 302 ft | 6 kts | 304° |
| 2026-05-05 16:34 | 37.93865 | 23.95093 | 302 ft | 0 kts | 308° |
| 2026-05-05 16:34 | 37.93866 | 23.95090 | 302 ft | 0 kts | 308° |